Home

Weather

KSLC Current Conditions

KSLC 251354Z 15007KT 10SM FEW200 02/M01 A3033 RMK AO2 SLP268 T00221006

KSLC Aviation Forecast

TAF KSLC 251120Z 2512/2618 15006KT P6SM SKC FM252200 20006KT P6SM SCT250 FM260200 16006KT P6SM SCT250


36° F
Clear
Clear

Clear
Monday
Clear
High 62°/Low 42°
0%
Partly Cloudy
Tuesday
Partly Cloudy
High 66°/Low 48°
0%
Overcast
Wednesday
Overcast
High 66°/Low 45°
0%
Chance of Rain
Thursday
Chance of Rain
High 48°/Low 38°
50%
Chance of Rain
Friday
Chance of Rain
High 50°/Low 35°
50%
Partly Cloudy
Saturday
Partly Cloudy
High 54°/Low 36°
20%